Time;durP1;ratioP1;P1;durP2;ratioP2;P2;SDS_P1;SDS_P2;PMS_P1;PMS_P2;Temp;Humidity;BMP_temperature;BMP_pressure;BME280_temperature;BME280_humidity;BME280_pressure;Samples;Min_cycle;Max_cycle;Signal;HPM_P1;HPM_P2
2023/12/26 00:00:52;;;;;;;26.05;9.43;;;;;;;15.05;58.09;96873.38;5036580;28;20022;-25
2023/12/26 00:03:18;;;;;;;16.63;5.68;;;;;;;14.89;58.35;96870.81;5036203;28;20414;-24
2023/12/26 00:05:43;;;;;;;15.48;4.93;;;;;;;15.03;58.18;96864.84;5037291;28;20479;-24
2023/12/26 00:08:09;;;;;;;15.25;5.43;;;;;;;14.85;58.29;96868.19;5036388;28;20075;-24
2023/12/26 00:10:35;;;;;;;16.83;5.05;;;;;;;14.89;58.16;96866.13;5036352;28;20018;-24
2023/12/26 00:13:01;;;;;;;16.13;4.18;;;;;;;15.03;57.72;96864.84;5036918;28;20024;-24
2023/12/26 00:15:27;;;;;;;8.82;2.92;;;;;;;14.90;57.83;96862.19;5036146;28;20037;-24
2023/12/26 00:17:52;;;;;;;7.65;3.35;;;;;;;14.96;57.72;96859.66;5044312;28;20517;-24
2023/12/26 00:20:18;;;;;;;13.43;3.60;;;;;;;14.95;57.73;96858.88;5036071;28;20021;-24
2023/12/26 00:22:43;;;;;;;10.43;3.50;;;;;;;14.85;58.08;96864.69;5021316;28;20030;-24
2023/12/26 00:25:09;;;;;;;15.52;4.35;;;;;;;14.97;57.89;96861.91;5035558;28;20040;-24
2023/12/26 00:27:37;;;;;;;14.95;4.20;;;;;;;14.85;57.83;96860.00;5035416;28;20061;-24
2023/12/26 00:30:03;;;;;;;8.82;2.88;;;;;;;14.80;58.09;96863.31;5036672;28;20026;-24
2023/12/26 00:32:29;;;;;;;11.52;4.15;;;;;;;14.94;57.81;96862.06;5035417;28;20570;-24
2023/12/26 00:34:54;;;;;;;13.68;3.75;;;;;;;14.97;57.72;96861.91;5035944;28;20028;-24
2023/12/26 00:37:21;;;;;;;12.82;5.50;;;;;;;14.97;57.94;96863.88;5036710;28;20033;-24
2023/12/26 00:39:46;;;;;;;12.05;5.30;;;;;;;14.96;57.70;96865.13;5040795;28;20025;-24
2023/12/26 00:42:12;;;;;;;17.20;5.47;;;;;;;14.89;57.78;96860.66;5038695;28;20804;-24
2023/12/26 00:44:37;;;;;;;16.75;5.75;;;;;;;14.89;57.83;96862.63;5035625;28;20040;-24
2023/12/26 00:47:03;;;;;;;13.55;5.18;;;;;;;14.94;57.82;96856.59;5035664;28;20072;-24
2023/12/26 00:49:29;;;;;;;13.27;5.00;;;;;;;14.85;58.03;96856.50;5036190;28;20044;-25
2023/12/26 00:51:54;;;;;;;15.52;5.63;;;;;;;14.69;58.24;96857.47;5035568;28;20017;-24
2023/12/26 00:54:19;;;;;;;16.00;5.13;;;;;;;14.79;58.19;96852.84;5035435;28;20487;-24
2023/12/26 00:56:45;;;;;;;15.05;5.25;;;;;;;14.84;57.94;96857.72;5035956;28;20377;-24
2023/12/26 00:59:10;;;;;;;15.90;5.38;;;;;;;14.88;57.81;96863.81;5017426;28;20018;-24
2023/12/26 01:01:36;;;;;;;18.58;5.68;;;;;;;14.95;57.66;96860.84;5036099;28;20025;-24
2023/12/26 01:04:01;;;;;;;24.42;7.32;;;;;;;14.84;57.72;96865.91;5034794;28;20021;-24
2023/12/26 01:06:27;;;;;;;17.67;5.13;;;;;;;14.74;57.45;96862.34;5035385;28;20013;-24
2023/12/26 01:08:52;;;;;;;12.13;3.47;;;;;;;14.66;57.71;96859.09;5036027;28;20035;-24
2023/12/26 01:11:17;;;;;;;11.07;3.65;;;;;;;14.71;57.41;96857.78;5035388;28;20502;-24
2023/12/26 01:13:43;;;;;;;10.70;3.45;;;;;;;14.66;57.71;96867.31;5035740;28;20049;-24
2023/12/26 01:16:08;;;;;;;10.13;3.40;;;;;;;14.52;58.41;96858.81;5035225;28;20029;-24
2023/12/26 01:18:34;;;;;;;11.68;4.07;;;;;;;14.53;58.16;96863.09;5035155;28;20028;-24
2023/12/26 01:20:59;;;;;;;19.77;4.32;;;;;;;14.47;58.31;96865.59;5035078;28;20030;-24
2023/12/26 01:23:26;;;;;;;10.80;3.58;;;;;;;14.37;58.65;96866.69;5035122;28;20021;-24
2023/12/26 01:25:51;;;;;;;14.68;3.75;;;;;;;14.59;58.19;96864.03;5035081;28;20025;-24
2023/12/26 01:28:17;;;;;;;10.30;3.50;;;;;;;14.49;58.57;96868.66;5035477;28;20062;-24
2023/12/26 01:30:42;;;;;;;10.82;3.75;;;;;;;14.42;58.42;96871.63;5034985;28;20028;-24
2023/12/26 01:33:08;;;;;;;11.55;3.92;;;;;;;14.57;58.11;96872.69;5034609;28;20467;-24
2023/12/26 01:35:34;;;;;;;12.30;3.70;;;;;;;14.49;58.15;96865.16;5034666;28;20057;-24
2023/12/26 01:37:59;;;;;;;12.02;4.60;;;;;;;14.45;58.06;96870.75;5034734;28;20026;-24
2023/12/26 01:40:25;;;;;;;9.13;3.95;;;;;;;14.49;57.83;96870.63;5042703;28;20032;-24
2023/12/26 01:42:50;;;;;;;15.68;4.72;;;;;;;14.56;58.12;96870.41;5034641;28;20116;-24
2023/12/26 01:45:16;;;;;;;12.93;4.07;;;;;;;14.51;58.05;96871.72;5034725;28;20033;-24
2023/12/26 01:47:45;;;;;;;14.30;4.43;;;;;;;14.65;57.60;96878.66;5034462;28;20033;-24
2023/12/26 01:50:13;;;;;;;15.63;4.68;;;;;;;14.45;58.01;96880.91;5034372;28;20041;-24
2023/12/26 01:52:39;;;;;;;16.30;4.93;;;;;;;14.47;58.08;96875.75;5035434;28;20025;-24
2023/12/26 01:55:08;;;;;;;12.07;4.80;;;;;;;14.57;57.85;96880.88;5034431;28;20431;-24
2023/12/26 01:57:35;;;;;;;16.85;4.80;;;;;;;14.39;58.63;96877.94;5035041;28;20124;-24
2023/12/26 02:00:03;;;;;;;14.85;5.07;;;;;;;14.52;58.30;96878.69;5034222;28;20017;-25
2023/12/26 02:02:32;;;;;;;17.02;5.35;;;;;;;14.46;58.44;96875.00;5034405;28;20460;-24
2023/12/26 02:04:57;;;;;;;15.00;5.07;;;;;;;14.55;58.51;96874.31;5041466;28;20029;-24
2023/12/26 02:07:23;;;;;;;14.32;5.93;;;;;;;14.56;58.27;96871.16;5034123;28;20391;-24
2023/12/26 02:09:49;;;;;;;17.23;5.65;;;;;;;14.41;58.88;96870.09;5034268;28;20032;-25
2023/12/26 02:12:14;;;;;;;12.52;5.60;;;;;;;14.58;58.81;96873.44;5034039;28;20021;-24
2023/12/26 02:14:41;;;;;;;14.10;5.18;;;;;;;14.57;58.62;96867.22;5033769;28;20467;-24
2023/12/26 02:17:10;;;;;;;16.00;5.60;;;;;;;14.53;58.72;96871.28;5048645;28;20016;-24
2023/12/26 02:19:41;;;;;;;18.83;6.40;;;;;;;14.40;58.98;96860.38;5033994;28;20017;-24
2023/12/26 02:22:07;;;;;;;14.52;5.30;;;;;;;14.59;58.69;96866.75;5034002;28;20433;-24
2023/12/26 02:24:32;;;;;;;13.82;5.45;;;;;;;14.61;58.35;96859.66;5033911;28;20021;-24
2023/12/26 02:26:58;;;;;;;17.23;5.35;;;;;;;14.35;58.96;96858.94;5034617;28;20029;-24
2023/12/26 02:29:24;;;;;;;11.25;4.63;;;;;;;14.42;58.77;96857.22;5033797;28;20017;-24
2023/12/26 02:31:53;;;;;;;12.57;5.70;;;;;;;14.44;58.71;96863.78;5033848;28;20018;-24
2023/12/26 02:34:19;;;;;;;16.50;5.00;;;;;;;14.57;58.07;96853.59;5034551;28;20110;-24
2023/12/26 02:36:45;;;;;;;14.93;6.03;;;;;;;14.52;58.33;96850.63;5033789;28;20067;-24
2023/12/26 02:39:10;;;;;;;13.02;4.65;;;;;;;14.46;58.32;96847.72;5034523;28;20529;-24
2023/12/26 02:41:36;;;;;;;13.57;4.15;;;;;;;14.51;57.92;96855.34;5033438;28;20029;-24
2023/12/26 02:44:01;;;;;;;11.60;4.55;;;;;;;14.47;58.19;96848.47;5033682;28;20033;-24
2023/12/26 02:46:27;;;;;;;12.48;4.75;;;;;;;14.46;58.28;96850.44;5033894;28;20032;-24
2023/12/26 02:48:52;;;;;;;12.57;4.72;;;;;;;14.57;57.98;96850.84;5032871;28;20077;-24
2023/12/26 02:51:19;;;;;;;12.27;4.07;;;;;;;14.54;57.95;96850.97;5033099;28;20044;-24
2023/12/26 02:53:44;;;;;;;11.73;4.10;;;;;;;14.67;57.79;96843.50;5040688;28;20482;-24
2023/12/26 02:56:10;;;;;;;9.73;4.07;;;;;;;14.61;57.67;96843.28;5033478;28;20116;-24
2023/12/26 02:58:36;;;;;;;9.82;4.20;;;;;;;14.54;58.16;96850.97;5041511;28;20023;-24
2023/12/26 03:01:01;;;;;;;10.07;4.07;;;;;;;14.46;58.36;96853.19;5033369;28;20030;-24
2023/12/26 03:03:26;;;;;;;12.95;4.10;;;;;;;14.46;58.29;96849.69;5033482;28;20036;-24
2023/12/26 03:05:52;;;;;;;9.57;3.63;;;;;;;14.42;58.17;96849.03;5034193;28;20043;-24
2023/12/26 03:08:17;;;;;;;10.07;4.30;;;;;;;14.54;58.08;96845.50;5032818;28;20485;-24
2023/12/26 03:10:43;;;;;;;11.27;4.47;;;;;;;14.51;57.92;96851.84;5034012;28;20024;-24
2023/12/26 03:13:08;;;;;;;10.18;4.93;;;;;;;14.41;58.00;96844.78;5033391;28;20020;-24
2023/12/26 03:15:34;;;;;;;11.98;4.88;;;;;;;14.57;57.78;96848.13;5033403;28;20018;-24
2023/12/26 03:18:00;;;;;;;13.05;4.93;;;;;;;14.41;58.21;96845.53;5033729;28;20026;-24
2023/12/26 03:20:27;;;;;;;15.55;4.95;;;;;;;14.46;57.87;96842.25;5033226;28;20478;-24
2023/12/26 03:22:52;;;;;;;12.20;4.38;;;;;;;14.38;58.17;96843.66;5041019;28;20029;-24
2023/12/26 03:25:18;;;;;;;11.25;5.32;;;;;;;14.27;58.83;96832.34;5033267;28;20027;-24
2023/12/26 03:27:43;;;;;;;14.60;4.97;;;;;;;14.31;58.59;96841.94;5032639;28;20120;-24
2023/12/26 03:30:09;;;;;;;13.65;5.18;;;;;;;14.32;58.52;96845.44;5034035;28;20064;-24
2023/12/26 03:32:34;;;;;;;16.75;5.50;;;;;;;14.38;58.12;96833.50;5033141;28;20044;-24
2023/12/26 03:35:01;;;;;;;11.75;5.45;;;;;;;14.24;58.26;96828.53;5033168;28;20497;-24
2023/12/26 03:37:27;;;;;;;11.65;4.88;;;;;;;14.28;58.16;96833.88;5033564;28;20530;-24
2023/12/26 03:39:52;;;;;;;11.10;4.65;;;;;;;14.15;58.36;96828.44;5033001;28;20034;-24
2023/12/26 03:42:17;;;;;;;15.02;4.75;;;;;;;14.35;57.92;96830.91;5033931;28;20079;-24
2023/12/26 03:44:46;;;;;;;12.68;4.20;;;;;;;14.31;58.04;96831.03;5032615;28;20026;-24
2023/12/26 03:47:12;;;;;;;14.80;5.10;;;;;;;14.33;57.91;96830.59;5032981;28;20025;-24
2023/12/26 03:49:38;;;;;;;14.23;5.05;;;;;;;14.19;58.06;96825.59;5032890;28;20050;-24
2023/12/26 03:52:04;;;;;;;14.88;5.38;;;;;;;14.32;57.84;96823.63;5032911;28;20022;-24
2023/12/26 03:54:29;;;;;;;10.50;4.10;;;;;;;14.36;57.79;96824.25;5033098;28;20505;-24
2023/12/26 03:56:55;;;;;;;10.80;4.85;;;;;;;14.26;57.91;96819.91;5033071;28;20018;-24
2023/12/26 03:59:20;;;;;;;10.45;4.97;;;;;;;14.10;58.02;96822.78;5041909;28;20022;-24
2023/12/26 04:01:46;;;;;;;10.38;4.35;;;;;;;14.19;57.62;96826.38;5037282;28;20441;-24
2023/12/26 04:04:12;;;;;;;9.10;4.57;;;;;;;14.29;57.44;96824.50;5025137;28;20423;-24
2023/12/26 04:06:37;;;;;;;9.80;3.97;;;;;;;14.22;57.40;96811.06;5037348;28;20029;-24
2023/12/26 04:09:03;;;;;;;12.85;4.28;;;;;;;14.42;57.24;96817.06;5035976;28;20411;-24
2023/12/26 04:11:30;;;;;;;13.85;4.65;;;;;;;14.24;57.86;96819.56;5036432;28;20075;-24
2023/12/26 04:13:55;;;;;;;13.18;4.68;;;;;;;14.39;57.56;96817.91;5036946;28;20026;-24
2023/12/26 04:16:21;;;;;;;10.65;3.88;;;;;;;14.31;58.22;96822.84;5036370;28;20426;-24
2023/12/26 04:18:46;;;;;;;12.27;4.28;;;;;;;14.31;57.95;96819.34;5036758;28;20439;-24
2023/12/26 04:21:12;;;;;;;12.90;3.88;;;;;;;14.08;58.44;96809.59;5043357;28;20032;-24
2023/12/26 04:23:37;;;;;;;10.20;4.05;;;;;;;14.24;58.02;96805.94;5036418;28;20768;-24
2023/12/26 04:26:03;;;;;;;15.98;4.18;;;;;;;14.14;58.20;96813.28;5037045;28;20053;-24
2023/12/26 04:28:28;;;;;;;8.35;4.18;;;;;;;14.19;58.05;96809.25;5018270;28;20032;-24
2023/12/26 04:30:54;;;;;;;10.43;3.92;;;;;;;14.14;58.23;96810.56;5036138;28;20028;-24
2023/12/26 04:33:19;;;;;;;12.77;3.60;;;;;;;14.17;57.85;96811.66;5036692;28;20025;-24
2023/12/26 04:35:45;;;;;;;12.93;3.80;;;;;;;14.17;57.78;96804.22;5035932;28;20028;-24
2023/12/26 04:38:12;;;;;;;7.50;3.80;;;;;;;13.97;58.20;96809.91;5036561;28;20028;-24
2023/12/26 04:40:38;;;;;;;11.35;3.58;;;;;;;14.07;58.03;96810.81;5035848;28;20156;-24
2023/12/26 04:43:07;;;;;;;11.65;3.78;;;;;;;14.09;58.10;96813.09;5035792;28;20036;-24
2023/12/26 04:45:33;;;;;;;8.98;3.88;;;;;;;14.14;57.87;96816.00;5035905;28;20037;-24
2023/12/26 04:47:59;;;;;;;11.13;3.63;;;;;;;14.23;57.66;96810.63;5035564;28;20024;-24
2023/12/26 04:50:24;;;;;;;8.68;3.70;;;;;;;14.37;57.59;96814.84;5036156;28;20395;-24
2023/12/26 04:52:49;;;;;;;8.40;3.35;;;;;;;14.32;57.66;96818.91;5035418;28;20382;-24
2023/12/26 04:55:15;;;;;;;11.93;3.70;;;;;;;14.38;57.43;96821.84;5035671;28;20383;-24
2023/12/26 04:57:40;;;;;;;8.45;3.25;;;;;;;14.40;57.44;96830.38;5037906;28;20454;-24
2023/12/26 05:00:06;;;;;;;9.60;3.22;;;;;;;14.20;57.93;96832.59;5040903;28;20021;-24
2023/12/26 05:02:32;;;;;;;10.82;3.22;;;;;;;14.26;57.70;96828.84;5035646;28;20395;-24
2023/12/26 05:04:57;;;;;;;8.80;3.38;;;;;;;14.32;57.43;96839.97;5035530;28;20014;-24
2023/12/26 05:07:23;;;;;;;8.77;3.10;;;;;;;14.26;57.53;96836.28;5035378;28;20026;-24
2023/12/26 05:09:48;;;;;;;12.15;4.10;;;;;;;14.20;57.54;96840.78;5035347;28;20030;-24
2023/12/26 05:12:14;;;;;;;8.88;3.10;;;;;;;14.12;57.68;96842.19;5034476;28;20483;-24
2023/12/26 05:14:39;;;;;;;8.95;3.30;;;;;;;14.06;58.22;96839.28;5034669;28;20022;-24
2023/12/26 05:17:05;;;;;;;9.88;3.53;;;;;;;14.19;58.01;96839.25;5035248;28;20028;-24
2023/12/26 05:19:30;;;;;;;9.95;3.35;;;;;;;14.28;57.89;96834.63;5035192;28;20108;-24
2023/12/26 05:21:56;;;;;;;8.38;3.17;;;;;;;14.15;58.09;96836.63;5042874;28;20033;-24
2023/12/26 05:24:21;;;;;;;8.40;3.50;;;;;;;14.13;58.18;96844.47;5035018;28;20044;-24
2023/12/26 05:26:47;;;;;;;7.03;3.10;;;;;;;14.26;57.92;96847.19;5035138;28;20041;-24
2023/12/26 05:29:12;;;;;;;9.15;3.13;;;;;;;14.20;57.97;96843.50;5035632;28;20478;-24
2023/12/26 05:31:38;;;;;;;8.95;3.20;;;;;;;14.26;57.74;96841.72;5017077;28;20026;-24
2023/12/26 05:34:05;;;;;;;6.70;2.88;;;;;;;14.15;58.22;96833.13;5035516;28;20037;-24
2023/12/26 05:36:31;;;;;;;11.02;3.00;;;;;;;14.25;57.70;96834.75;5034601;28;20372;-24
2023/12/26 05:38:57;;;;;;;9.10;3.20;;;;;;;14.32;58.00;96835.28;5034791;28;20083;-24
2023/12/26 05:41:23;;;;;;;9.75;2.88;;;;;;;14.15;57.95;96835.88;5035441;28;20031;-24
2023/12/26 05:43:49;;;;;;;6.28;3.50;;;;;;;14.11;58.25;96835.22;5034660;28;20028;-24
2023/12/26 05:46:14;;;;;;;9.93;2.92;;;;;;;14.31;57.48;96843.91;5034646;28;20026;-24
2023/12/26 05:48:43;;;;;;;9.18;3.13;;;;;;;14.31;57.43;96839.22;5034678;28;20021;-24
2023/12/26 05:51:08;;;;;;;7.72;2.78;;;;;;;14.16;57.76;96832.69;5034441;28;20365;-24
2023/12/26 05:53:34;;;;;;;8.57;3.25;;;;;;;14.06;58.15;96841.22;5035183;28;20032;-24
2023/12/26 05:55:59;;;;;;;10.45;3.38;;;;;;;14.18;57.88;96838.47;5034543;28;20025;-24
2023/12/26 05:58:25;;;;;;;9.32;3.00;;;;;;;14.17;57.90;96839.69;5041687;28;20017;-24
2023/12/26 06:00:51;;;;;;;10.65;3.08;;;;;;;14.24;58.01;96841.41;5041294;28;20052;-24
2023/12/26 06:03:17;;;;;;;9.43;3.65;;;;;;;14.17;58.09;96839.69;5033740;28;20048;-24
2023/12/26 06:05:42;;;;;;;9.15;3.08;;;;;;;14.12;58.02;96839.47;5034829;28;20029;-24
2023/12/26 06:08:08;;;;;;;10.35;3.03;;;;;;;14.13;57.76;96844.47;5034319;28;20029;-24
2023/12/26 06:10:33;;;;;;;8.05;3.60;;;;;;;14.03;58.14;96845.59;5034135;28;20018;-24
2023/12/26 06:12:59;;;;;;;10.05;3.05;;;;;;;14.05;58.22;96845.91;5034851;28;20035;-24
2023/12/26 06:15:24;;;;;;;13.70;3.05;;;;;;;14.05;57.94;96842.44;5034062;28;20032;-24
2023/12/26 06:17:50;;;;;;;10.63;3.72;;;;;;;14.08;57.70;96850.50;5034820;28;20088;-24
2023/12/26 06:20:16;;;;;;;9.23;2.92;;;;;;;14.01;57.90;96848.75;5033882;28;20072;-24
2023/12/26 06:22:41;;;;;;;7.53;2.58;;;;;;;14.09;57.48;96845.81;5040343;28;20091;-24
2023/12/26 06:25:07;;;;;;;5.93;3.05;;;;;;;13.97;58.06;96852.81;5034719;28;20083;-24
2023/12/26 06:27:33;;;;;;;12.25;3.53;;;;;;;14.00;57.82;96847.22;5033361;28;20025;-24
2023/12/26 06:29:59;;;;;;;10.88;3.63;;;;;;;14.02;57.71;96854.97;5034124;28;20029;-24
2023/12/26 06:32:25;;;;;;;9.65;2.88;;;;;;;14.10;57.66;96861.72;5033993;28;20026;-24
2023/12/26 06:34:50;;;;;;;9.43;2.60;;;;;;;14.10;57.63;96853.53;5033628;28;20070;-24
2023/12/26 06:37:16;;;;;;;9.18;3.05;;;;;;;13.94;58.19;96859.91;5034576;28;20025;-24
2023/12/26 06:39:43;;;;;;;10.70;3.25;;;;;;;14.11;57.51;96860.53;5015791;28;20041;-24
2023/12/26 06:42:10;;;;;;;12.90;3.10;;;;;;;14.05;57.95;96862.28;5033630;28;20036;-24
2023/12/26 06:44:35;;;;;;;7.93;2.83;;;;;;;14.15;57.37;96863.91;5040362;28;20978;-24
2023/12/26 06:47:00;;;;;;;7.95;2.70;;;;;;;14.05;57.74;96864.25;5033759;28;20025;-24
2023/12/26 06:49:26;;;;;;;7.75;3.35;;;;;;;13.97;58.15;96869.91;5034058;28;20510;-24
2023/12/26 06:51:51;;;;;;;8.10;2.67;;;;;;;14.10;58.00;96871.88;5033802;28;20029;-24
2023/12/26 06:54:17;;;;;;;11.55;2.78;;;;;;;14.02;57.70;96868.59;5033530;28;20029;-24
2023/12/26 06:56:42;;;;;;;9.55;2.67;;;;;;;13.99;58.00;96881.16;5033730;28;20123;-24
2023/12/26 06:59:07;;;;;;;7.88;3.20;;;;;;;13.94;57.82;96872.78;5033440;28;20475;-24
2023/12/26 07:01:33;;;;;;;9.00;3.00;;;;;;;13.89;58.47;96878.75;5034117;28;20102;-24
2023/12/26 07:04:00;;;;;;;6.82;2.65;;;;;;;14.06;57.89;96876.69;5015092;28;20164;-24
2023/12/26 07:06:26;;;;;;;12.60;2.92;;;;;;;14.15;57.69;96874.06;5033509;28;20455;-24
2023/12/26 07:08:51;;;;;;;9.32;2.90;;;;;;;14.11;57.61;96878.84;5034153;28;20032;-24
2023/12/26 07:11:17;;;;;;;9.13;3.15;;;;;;;14.20;57.69;96884.41;5033413;28;20018;-24
2023/12/26 07:13:43;;;;;;;9.55;3.00;;;;;;;13.93;58.20;96887.59;5033760;28;20037;-24
2023/12/26 07:16:08;;;;;;;7.82;2.80;;;;;;;14.01;58.36;96892.38;5033359;28;20541;-24
2023/12/26 07:18:33;;;;;;;8.90;3.10;;;;;;;13.92;58.66;96888.81;5033518;28;20067;-24
2023/12/26 07:20:59;;;;;;;5.80;2.90;;;;;;;13.98;58.50;96895.22;5034852;28;20124;-24
2023/12/26 07:23:24;;;;;;;7.28;2.78;;;;;;;14.06;58.24;96901.22;5039845;28;20362;-24
2023/12/26 07:25:50;;;;;;;6.90;3.10;;;;;;;14.03;57.92;96900.91;5033101;28;20022;-24
2023/12/26 07:28:17;;;;;;;8.10;2.88;;;;;;;14.09;58.23;96908.53;5033638;28;20100;-23
2023/12/26 07:30:43;;;;;;;7.55;2.47;;;;;;;14.20;57.98;96904.28;5033298;28;20403;-24
2023/12/26 07:33:08;;;;;;;7.68;2.58;;;;;;;14.16;57.97;96897.41;5033776;28;20021;-24
2023/12/26 07:35:36;;;;;;;5.18;2.45;;;;;;;14.07;58.61;96905.50;5037103;28;20099;-24
2023/12/26 07:38:01;;;;;;;7.82;2.33;;;;;;;14.26;58.03;96910.69;5036929;28;20026;-23
2023/12/26 07:40:27;;;;;;;5.00;2.38;;;;;;;14.17;58.33;96905.16;5037189;28;20477;-24
2023/12/26 07:42:52;;;;;;;9.30;2.63;;;;;;;14.20;58.16;96915.19;5036938;28;20029;-24
2023/12/26 07:45:23;;;;;;;12.18;4.60;;;;;;;14.22;58.26;96917.47;5036786;28;20451;-24
2023/12/26 07:47:48;;;;;;;9.25;5.20;;;;;;;14.30;58.56;96918.78;5036036;28;20416;-24
2023/12/26 07:50:14;;;;;;;20.23;8.90;;;;;;;14.32;58.53;96933.50;5036558;28;20070;-24
2023/12/26 07:52:39;;;;;;;17.38;8.30;;;;;;;14.46;58.19;96932.31;5037294;28;20028;-24
2023/12/26 07:55:05;;;;;;;12.00;6.20;;;;;;;14.59;58.08;96940.47;5036255;28;20029;-24
2023/12/26 07:57:30;;;;;;;8.52;4.03;;;;;;;14.48;58.43;96935.34;5037296;28;20025;-24
2023/12/26 07:59:55;;;;;;;6.25;3.60;;;;;;;14.43;58.50;96937.88;5036558;28;20024;-24
2023/12/26 08:02:21;;;;;;;7.57;2.38;;;;;;;14.55;58.43;96935.13;5036578;28;20771;-24
2023/12/26 08:04:46;;;;;;;8.52;2.97;;;;;;;14.58;58.20;96936.22;5036702;28;20098;-24
2023/12/26 08:07:12;;;;;;;6.63;2.60;;;;;;;14.59;57.99;96946.69;5036622;28;20038;-24
2023/12/26 08:09:37;;;;;;;8.27;3.15;;;;;;;14.51;58.57;96939.19;5036054;28;20163;-24
2023/12/26 08:12:04;;;;;;;8.75;3.20;;;;;;;14.58;58.54;96944.41;5036825;28;20467;-24
2023/12/26 08:14:30;;;;;;;8.32;3.28;;;;;;;14.61;58.78;96947.00;5036295;28;20025;-24
2023/12/26 08:16:55;;;;;;;10.02;3.42;;;;;;;14.65;58.54;96944.16;5036948;28;20375;-24
2023/12/26 08:19:20;;;;;;;7.63;4.20;;;;;;;14.42;59.37;96948.03;5036122;28;20112;-24
2023/12/26 08:21:46;;;;;;;8.82;4.38;;;;;;;14.66;58.99;96948.44;5036135;28;20116;-24
2023/12/26 08:24:12;;;;;;;8.63;4.60;;;;;;;14.57;59.23;96948.34;5037035;28;20489;-24
2023/12/26 08:26:37;;;;;;;6.65;3.83;;;;;;;14.40;59.67;96953.16;5035726;28;20029;-24
2023/12/26 08:29:02;;;;;;;9.55;3.38;;;;;;;14.47;59.40;96952.94;5036837;28;20045;-24
2023/12/26 08:31:28;;;;;;;6.80;3.05;;;;;;;14.51;59.00;96953.59;5036067;28;20832;-24
2023/12/26 08:33:53;;;;;;;10.23;2.53;;;;;;;14.45;59.31;96960.81;5035996;28;20013;-24
2023/12/26 08:36:19;;;;;;;7.90;3.08;;;;;;;14.61;59.22;96955.19;5036593;28;20183;-24
2023/12/26 08:38:44;;;;;;;9.15;2.90;;;;;;;14.67;58.69;96958.16;5035938;28;20040;-24
2023/12/26 08:41:12;;;;;;;7.30;2.70;;;;;;;14.73;58.46;96964.56;5036092;28;20037;-24
2023/12/26 08:43:38;;;;;;;7.50;2.33;;;;;;;14.64;58.92;96975.41;5035889;28;20116;-24
2023/12/26 08:46:03;;;;;;;7.07;2.08;;;;;;;14.65;58.85;96966.78;5034028;28;20137;-24
2023/12/26 08:48:29;;;;;;;8.27;2.45;;;;;;;14.78;58.55;96974.94;5036531;28;20148;-24
2023/12/26 08:50:54;;;;;;;7.85;2.50;;;;;;;14.72;58.92;96977.44;5035737;28;20028;-24
2023/12/26 08:53:20;;;;;;;4.90;2.15;;;;;;;14.91;58.43;96977.63;5035669;28;20035;-24
2023/12/26 08:55:46;;;;;;;10.65;2.30;;;;;;;14.73;59.53;96973.53;5036118;28;20039;-24
2023/12/26 08:58:12;;;;;;;5.63;2.30;;;;;;;14.89;58.96;96974.59;5041522;28;20094;-24
2023/12/26 09:00:38;;;;;;;13.00;2.85;;;;;;;14.72;59.41;96974.72;5037251;28;20037;-24
2023/12/26 09:03:04;;;;;;;7.25;2.35;;;;;;;15.37;57.88;96976.81;5034908;28;20079;-24
2023/12/26 09:05:29;;;;;;;6.43;2.17;;;;;;;15.39;57.35;96977.13;5035509;28;20100;-24
2023/12/26 09:07:55;;;;;;;8.20;2.40;;;;;;;15.09;58.43;96980.53;5035519;28;20061;-24
2023/12/26 09:10:20;;;;;;;3.33;1.80;;;;;;;15.09;58.37;96985.97;5035272;28;20024;-24
2023/12/26 09:12:46;;;;;;;7.25;2.63;;;;;;;14.87;59.50;96987.91;5036054;28;20022;-24
2023/12/26 09:15:12;;;;;;;8.88;2.40;;;;;;;14.79;59.74;96992.84;5035111;28;20021;-24
2023/12/26 09:17:37;;;;;;;6.50;2.28;;;;;;;15.00;59.13;96996.84;5035299;28;20108;-24
2023/12/26 09:20:03;;;;;;;7.25;2.30;;;;;;;14.70;60.27;96988.06;5035965;28;20037;-24
2023/12/26 09:22:29;;;;;;;6.38;2.45;;;;;;;14.57;60.49;96992.03;5035025;28;20471;-24
2023/12/26 09:24:54;;;;;;;9.68;2.47;;;;;;;14.73;60.46;96994.59;5035786;28;20028;-24
2023/12/26 09:27:20;;;;;;;7.53;2.45;;;;;;;14.80;60.18;97001.81;5016782;28;20021;-24
2023/12/26 09:29:45;;;;;;;10.35;3.55;;;;;;;14.77;60.43;96997.97;5023462;28;20079;-24
2023/12/26 09:32:11;;;;;;;7.60;2.90;;;;;;;15.06;59.58;97004.03;5035164;28;20032;-24
2023/12/26 09:34:36;;;;;;;9.35;4.05;;;;;;;14.81;60.58;97004.09;5034735;28;20028;-24
2023/12/26 09:37:02;;;;;;;10.98;4.63;;;;;;;14.87;60.29;97007.78;5034804;28;20095;-24
2023/12/26 09:39:27;;;;;;;10.88;4.68;;;;;;;14.87;60.64;97009.75;5037692;28;20031;-24
2023/12/26 09:41:55;;;;;;;10.30;4.55;;;;;;;14.97;60.39;97003.94;5039513;28;20091;-24
2023/12/26 09:44:21;;;;;;;9.57;4.80;;;;;;;15.38;59.01;97005.66;5034985;28;20100;-24
2023/12/26 09:46:47;;;;;;;12.15;4.45;;;;;;;14.86;60.61;97003.53;5034746;28;20021;-25
2023/12/26 09:49:13;;;;;;;15.15;5.28;;;;;;;14.82;60.85;97008.38;5034347;28;20143;-24
2023/12/26 09:51:45;;;;;;;11.73;4.88;;;;;;;14.90;61.09;97004.19;5034871;28;20474;-24
2023/12/26 09:54:12;;;;;;;12.02;4.75;;;;;;;14.97;60.64;97003.94;5034639;28;20040;-24
2023/12/26 09:56:42;;;;;;;11.27;4.40;;;;;;;15.04;60.43;97006.44;5034924;28;20029;-24
2023/12/26 09:59:10;;;;;;;8.82;4.43;;;;;;;14.92;61.11;97004.50;5034349;28;20025;-24
2023/12/26 10:01:35;;;;;;;10.05;4.45;;;;;;;14.89;61.29;97007.34;5035075;28;20029;-24
2023/12/26 10:04:03;;;;;;;14.73;5.53;;;;;;;14.81;61.40;97012.28;5041585;28;20466;-24
2023/12/26 10:06:29;;;;;;;14.23;5.93;;;;;;;14.96;61.01;97012.59;5034239;28;20029;-24
2023/12/26 10:08:55;;;;;;;14.85;5.97;;;;;;;14.95;61.32;97011.06;5034842;28;20030;-24
2023/12/26 10:11:21;;;;;;;15.75;5.82;;;;;;;15.01;61.33;97015.53;5034245;28;20070;-24
2023/12/26 10:13:52;;;;;;;18.42;7.20;;;;;;;15.02;62.07;97008.09;5034942;28;20379;-24
2023/12/26 10:16:18;;;;;;;19.13;9.02;;;;;;;15.08;61.65;97009.81;5034123;28;20471;-24
2023/12/26 10:18:44;;;;;;;16.55;7.30;;;;;;;14.93;62.16;97005.28;5030475;28;20082;-24
2023/12/26 10:21:09;;;;;;;15.48;6.68;;;;;;;14.88;62.59;97001.13;5036871;28;20017;-24
2023/12/26 10:23:35;;;;;;;10.93;5.68;;;;;;;14.95;62.00;97002.88;5038732;28;20036;-24
2023/12/26 10:26:01;;;;;;;11.48;6.63;;;;;;;15.00;62.18;97000.34;5034029;28;20025;-24
2023/12/26 10:28:27;;;;;;;13.00;5.30;;;;;;;14.89;62.42;96997.19;5033917;28;20032;-24
2023/12/26 10:30:52;;;;;;;11.75;5.70;;;;;;;15.12;61.48;96989.81;5033799;28;20029;-25
2023/12/26 10:33:27;;;;;;;14.18;6.50;;;;;;;14.98;62.13;96996.50;5034720;28;20119;-24
2023/12/26 10:36:04;;;;;;;14.40;6.20;;;;;;;14.97;62.21;96993.00;5033698;28;20386;-24
2023/12/26 10:38:30;;;;;;;14.57;6.30;;;;;;;14.95;62.44;96994.69;5040871;28;20182;-24
2023/12/26 10:40:59;;;;;;;12.73;5.70;;;;;;;14.87;62.51;96988.66;5040854;28;20116;-24
2023/12/26 10:43:27;;;;;;;12.00;5.00;;;;;;;14.88;62.13;96994.91;5034734;28;20142;-24
2023/12/26 10:45:56;;;;;;;9.27;5.32;;;;;;;14.86;62.82;96991.84;5033162;28;20445;-24
2023/12/26 10:48:23;;;;;;;14.18;5.30;;;;;;;14.90;62.80;96998.72;5034421;28;20025;-24
2023/12/26 10:50:50;;;;;;;13.55;5.30;;;;;;;14.82;63.08;96986.53;5033542;28;20045;-24
2023/12/26 10:53:19;;;;;;;12.10;5.43;;;;;;;14.86;63.00;96992.59;5032958;28;20029;-24
2023/12/26 10:55:46;;;;;;;13.10;5.65;;;;;;;14.99;62.48;96989.84;5034193;28;20052;-24
2023/12/26 10:58:12;;;;;;;12.57;4.90;;;;;;;14.67;63.24;96991.69;5033534;28;20025;-24
2023/12/26 11:00:40;;;;;;;9.05;4.75;;;;;;;14.91;62.75;96988.56;5034210;28;20385;-24
2023/12/26 11:03:06;;;;;;;10.32;4.70;;;;;;;14.71;63.06;96984.13;5037691;28;20134;-24
2023/12/26 11:05:31;;;;;;;8.40;5.15;;;;;;;14.90;63.49;96987.03;5018477;28;20029;-24
2023/12/26 11:07:57;;;;;;;12.00;5.20;;;;;;;14.89;63.15;96990.97;5034526;28;20017;-24
2023/12/26 11:40:56;;;;;;;13.35;5.82;;;;;;;15.00;61.83;96964.06;5048266;28;20044;-24
2023/12/26 11:57:13;;;;;;;8.80;4.63;;;;;;;15.03;59.50;96957.72;5027807;28;20200;-24
2023/12/26 12:13:05;;;;;;;7.35;4.28;;;;;;;15.05;56.96;96936.19;5046968;28;20028;-24
2023/12/26 12:26:31;;;;;;;6.80;2.95;;;;;;;15.10;56.83;96917.25;5037287;28;20095;-24
2023/12/26 12:42:25;;;;;;;3.65;2.17;;;;;;;15.09;57.12;96918.44;5037017;28;20052;-24
2023/12/26 12:58:18;;;;;;;4.45;2.47;;;;;;;15.05;57.19;96917.84;5028432;28;20047;-24